sensor_id;sensor_type;location;lat;lon;timestamp;temperature;humidity
7472;DHT22;3777;48.722;8.110;2022-11-20T00:00:19;10.80;99.90
7472;DHT22;3777;48.722;8.110;2022-11-20T00:02:46;10.80;99.90
7472;DHT22;3777;48.722;8.110;2022-11-20T00:05:13;10.90;99.90
7472;DHT22;3777;48.722;8.110;2022-11-20T00:07:40;10.90;99.90
7472;DHT22;3777;48.722;8.110;2022-11-20T00:10:08;10.90;99.90
7472;DHT22;3777;48.722;8.110;2022-11-20T00:12:35;11.00;99.90
7472;DHT22;3777;48.722;8.110;2022-11-20T00:15:03;11.00;99.90
7472;DHT22;3777;48.722;8.110;2022-11-20T00:17:30;11.10;99.90
7472;DHT22;3777;48.722;8.110;2022-11-20T00:19:57;11.10;99.90
7472;DHT22;3777;48.722;8.110;2022-11-20T00:22:25;11.20;99.90
7472;DHT22;3777;48.722;8.110;2022-11-20T00:24:52;11.20;99.90
7472;DHT22;3777;48.722;8.110;2022-11-20T00:27:18;11.30;99.90
7472;DHT22;3777;48.722;8.110;2022-11-20T00:29:45;11.30;99.90
7472;DHT22;3777;48.722;8.110;2022-11-20T00:32:14;11.40;99.90
7472;DHT22;3777;48.722;8.110;2022-11-20T00:34:41;11.40;99.90
7472;DHT22;3777;48.722;8.110;2022-11-20T00:37:08;11.40;99.90
7472;DHT22;3777;48.722;8.110;2022-11-20T00:39:35;11.40;99.90
7472;DHT22;3777;48.722;8.110;2022-11-20T00:42:01;11.30;99.90
7472;DHT22;3777;48.722;8.110;2022-11-20T00:44:28;11.40;99.90
7472;DHT22;3777;48.722;8.110;2022-11-20T00:46:55;11.30;99.90
7472;DHT22;3777;48.722;8.110;2022-11-20T00:49:24;11.30;99.90
7472;DHT22;3777;48.722;8.110;2022-11-20T00:51:51;11.30;99.90
7472;DHT22;3777;48.722;8.110;2022-11-20T00:54:18;11.30;99.90
7472;DHT22;3777;48.722;8.110;2022-11-20T00:56:45;11.20;99.90
7472;DHT22;3777;48.722;8.110;2022-11-20T00:59:12;11.30;99.90
7472;DHT22;3777;48.722;8.110;2022-11-20T01:01:39;11.20;99.90
7472;DHT22;3777;48.722;8.110;2022-11-20T01:04:06;11.20;99.90
7472;DHT22;3777;48.722;8.110;2022-11-20T01:06:36;11.20;99.90
7472;DHT22;3777;48.722;8.110;2022-11-20T01:09:05;11.20;99.90
7472;DHT22;3777;48.722;8.110;2022-11-20T01:11:35;11.20;99.90
7472;DHT22;3777;48.722;8.110;2022-11-20T01:14:05;11.20;99.90
7472;DHT22;3777;48.722;8.110;2022-11-20T01:16:34;11.00;99.90
7472;DHT22;3777;48.722;8.110;2022-11-20T01:19:03;11.00;99.90
7472;DHT22;3777;48.722;8.110;2022-11-20T01:21:32;11.00;99.90
7472;DHT22;3777;48.722;8.110;2022-11-20T01:24:01;11.10;99.90
7472;DHT22;3777;48.722;8.110;2022-11-20T01:26:30;11.10;99.90
7472;DHT22;3777;48.722;8.110;2022-11-20T01:28:59;11.20;99.90
7472;DHT22;3777;48.722;8.110;2022-11-20T01:31:27;11.20;99.90
7472;DHT22;3777;48.722;8.110;2022-11-20T01:33:56;11.30;99.90
7472;DHT22;3777;48.722;8.110;2022-11-20T01:36:25;11.30;99.90
7472;DHT22;3777;48.722;8.110;2022-11-20T01:38:54;11.30;99.90
7472;DHT22;3777;48.722;8.110;2022-11-20T01:41:24;11.40;99.90
7472;DHT22;3777;48.722;8.110;2022-11-20T01:44:11;11.40;99.90
7472;DHT22;3777;48.722;8.110;2022-11-20T01:46:44;11.40;99.90
7472;DHT22;3777;48.722;8.110;2022-11-20T01:49:17;11.50;99.90
7472;DHT22;3777;48.722;8.110;2022-11-20T01:51:48;11.50;99.90
7472;DHT22;3777;48.722;8.110;2022-11-20T01:54:19;11.50;99.90
7472;DHT22;3777;48.722;8.110;2022-11-20T01:56:52;11.50;99.90
7472;DHT22;3777;48.722;8.110;2022-11-20T01:59:23;11.50;99.90
7472;DHT22;3777;48.722;8.110;2022-11-20T02:01:50;11.50;99.90
7472;DHT22;3777;48.722;8.110;2022-11-20T02:04:18;11.50;99.90
7472;DHT22;3777;48.722;8.110;2022-11-20T02:06:48;11.30;99.90
7472;DHT22;3777;48.722;8.110;2022-11-20T02:09:16;11.20;99.90
7472;DHT22;3777;48.722;8.110;2022-11-20T02:11:43;11.20;99.90
7472;DHT22;3777;48.722;8.110;2022-11-20T02:14:11;11.20;99.90
7472;DHT22;3777;48.722;8.110;2022-11-20T02:16:40;11.20;99.90
7472;DHT22;3777;48.722;8.110;2022-11-20T02:19:17;11.30;99.90
7472;DHT22;3777;48.722;8.110;2022-11-20T02:21:49;11.20;99.90
7472;DHT22;3777;48.722;8.110;2022-11-20T02:24:21;11.20;99.90
7472;DHT22;3777;48.722;8.110;2022-11-20T02:26:51;11.20;99.90
7472;DHT22;3777;48.722;8.110;2022-11-20T02:29:24;11.20;99.90
7472;DHT22;3777;48.722;8.110;2022-11-20T02:31:53;11.20;99.90
7472;DHT22;3777;48.722;8.110;2022-11-20T02:34:21;11.20;99.90
7472;DHT22;3777;48.722;8.110;2022-11-20T02:36:49;11.30;99.90
7472;DHT22;3777;48.722;8.110;2022-11-20T02:39:20;11.30;99.90
7472;DHT22;3777;48.722;8.110;2022-11-20T02:41:52;11.20;99.90
7472;DHT22;3777;48.722;8.110;2022-11-20T02:44:20;11.20;99.90
7472;DHT22;3777;48.722;8.110;2022-11-20T02:46:47;11.20;99.90
7472;DHT22;3777;48.722;8.110;2022-11-20T02:49:13;11.10;99.90
7472;DHT22;3777;48.722;8.110;2022-11-20T02:51:42;11.10;99.90
7472;DHT22;3777;48.722;8.110;2022-11-20T02:54:09;11.00;99.90
7472;DHT22;3777;48.722;8.110;2022-11-20T02:56:39;11.10;99.90
7472;DHT22;3777;48.722;8.110;2022-11-20T02:59:06;11.00;99.90
7472;DHT22;3777;48.722;8.110;2022-11-20T03:01:33;11.00;99.90
7472;DHT22;3777;48.722;8.110;2022-11-20T03:04:00;11.00;99.90
7472;DHT22;3777;48.722;8.110;2022-11-20T03:06:27;11.00;99.90
7472;DHT22;3777;48.722;8.110;2022-11-20T03:08:54;11.10;99.90
7472;DHT22;3777;48.722;8.110;2022-11-20T03:11:21;11.10;99.90
7472;DHT22;3777;48.722;8.110;2022-11-20T03:13:50;11.20;99.90
7472;DHT22;3777;48.722;8.110;2022-11-20T03:16:19;11.20;99.90
7472;DHT22;3777;48.722;8.110;2022-11-20T03:18:46;11.20;99.90
7472;DHT22;3777;48.722;8.110;2022-11-20T03:21:14;11.30;99.90
7472;DHT22;3777;48.722;8.110;2022-11-20T03:23:42;11.30;99.90
7472;DHT22;3777;48.722;8.110;2022-11-20T03:26:11;11.30;99.90
7472;DHT22;3777;48.722;8.110;2022-11-20T03:28:39;11.40;99.90
7472;DHT22;3777;48.722;8.110;2022-11-20T03:31:09;11.40;99.90
7472;DHT22;3777;48.722;8.110;2022-11-20T03:33:37;11.40;99.90
7472;DHT22;3777;48.722;8.110;2022-11-20T03:36:06;11.40;99.90
7472;DHT22;3777;48.722;8.110;2022-11-20T03:38:34;11.40;99.90
7472;DHT22;3777;48.722;8.110;2022-11-20T03:41:03;11.40;99.90
7472;DHT22;3777;48.722;8.110;2022-11-20T03:43:30;11.40;99.90
7472;DHT22;3777;48.722;8.110;2022-11-20T03:45:57;11.40;99.90
7472;DHT22;3777;48.722;8.110;2022-11-20T03:48:26;11.50;99.90
7472;DHT22;3777;48.722;8.110;2022-11-20T03:51:06;11.40;99.90
7472;DHT22;3777;48.722;8.110;2022-11-20T03:53:33;11.40;99.90
7472;DHT22;3777;48.722;8.110;2022-11-20T03:56:00;11.40;99.90
7472;DHT22;3777;48.722;8.110;2022-11-20T03:58:27;11.20;99.90
7472;DHT22;3777;48.722;8.110;2022-11-20T04:00:54;11.20;99.90
7472;DHT22;3777;48.722;8.110;2022-11-20T04:03:21;11.30;99.90
7472;DHT22;3777;48.722;8.110;2022-11-20T04:05:49;11.30;99.90
7472;DHT22;3777;48.722;8.110;2022-11-20T04:08:16;11.30;99.90
7472;DHT22;3777;48.722;8.110;2022-11-20T04:10:43;11.30;99.90
7472;DHT22;3777;48.722;8.110;2022-11-20T04:13:10;11.30;99.90
7472;DHT22;3777;48.722;8.110;2022-11-20T04:15:37;11.30;99.90
7472;DHT22;3777;48.722;8.110;2022-11-20T04:18:04;11.20;99.90
7472;DHT22;3777;48.722;8.110;2022-11-20T04:20:31;11.20;99.90
7472;DHT22;3777;48.722;8.110;2022-11-20T04:22:59;11.20;99.90
7472;DHT22;3777;48.722;8.110;2022-11-20T04:25:26;11.10;99.90
7472;DHT22;3777;48.722;8.110;2022-11-20T04:27:53;11.20;99.90
7472;DHT22;3777;48.722;8.110;2022-11-20T04:30:21;11.10;99.90
7472;DHT22;3777;48.722;8.110;2022-11-20T04:32:48;11.00;99.90
7472;DHT22;3777;48.722;8.110;2022-11-20T04:35:15;11.00;99.90
7472;DHT22;3777;48.722;8.110;2022-11-20T04:37:42;11.00;99.90
7472;DHT22;3777;48.722;8.110;2022-11-20T04:42:38;11.00;99.90
7472;DHT22;3777;48.722;8.110;2022-11-20T04:45:06;11.00;99.90
7472;DHT22;3777;48.722;8.110;2022-11-20T04:47:33;11.10;99.90
7472;DHT22;3777;48.722;8.110;2022-11-20T04:50:00;11.00;99.90
7472;DHT22;3777;48.722;8.110;2022-11-20T04:52:27;10.90;99.90
7472;DHT22;3777;48.722;8.110;2022-11-20T04:54:54;10.90;99.90
7472;DHT22;3777;48.722;8.110;2022-11-20T04:57:22;10.80;99.90
7472;DHT22;3777;48.722;8.110;2022-11-20T04:59:49;10.70;99.90
7472;DHT22;3777;48.722;8.110;2022-11-20T05:02:16;10.50;99.90
7472;DHT22;3777;48.722;8.110;2022-11-20T05:04:43;10.40;99.90
7472;DHT22;3777;48.722;8.110;2022-11-20T05:07:10;10.50;99.90
7472;DHT22;3777;48.722;8.110;2022-11-20T05:09:37;10.50;99.90
7472;DHT22;3777;48.722;8.110;2022-11-20T05:12:04;10.60;99.90
7472;DHT22;3777;48.722;8.110;2022-11-20T05:14:32;10.40;99.90
7472;DHT22;3777;48.722;8.110;2022-11-20T05:16:59;10.50;99.90
7472;DHT22;3777;48.722;8.110;2022-11-20T05:19:26;10.50;99.90
7472;DHT22;3777;48.722;8.110;2022-11-20T05:21:53;10.50;99.90
7472;DHT22;3777;48.722;8.110;2022-11-20T05:24:20;10.50;99.90
7472;DHT22;3777;48.722;8.110;2022-11-20T05:26:47;10.50;99.90
7472;DHT22;3777;48.722;8.110;2022-11-20T05:29:14;10.50;99.90
7472;DHT22;3777;48.722;8.110;2022-11-20T05:31:42;10.60;99.90
7472;DHT22;3777;48.722;8.110;2022-11-20T05:34:09;10.60;99.90
7472;DHT22;3777;48.722;8.110;2022-11-20T05:36:36;10.20;99.90
7472;DHT22;3777;48.722;8.110;2022-11-20T05:39:03;10.00;99.90
7472;DHT22;3777;48.722;8.110;2022-11-20T05:41:32;10.20;99.90
7472;DHT22;3777;48.722;8.110;2022-11-20T05:43:59;10.20;99.90
7472;DHT22;3777;48.722;8.110;2022-11-20T05:46:26;10.10;99.90
7472;DHT22;3777;48.722;8.110;2022-11-20T05:48:55;10.30;99.90
7472;DHT22;3777;48.722;8.110;2022-11-20T05:51:23;10.20;99.90
7472;DHT22;3777;48.722;8.110;2022-11-20T05:53:50;10.30;99.90
7472;DHT22;3777;48.722;8.110;2022-11-20T05:56:18;10.30;99.90
7472;DHT22;3777;48.722;8.110;2022-11-20T05:58:46;10.40;99.90
7472;DHT22;3777;48.722;8.110;2022-11-20T06:01:15;10.60;99.90
7472;DHT22;3777;48.722;8.110;2022-11-20T06:03:42;10.60;99.90
7472;DHT22;3777;48.722;8.110;2022-11-20T06:06:13;10.60;99.90
7472;DHT22;3777;48.722;8.110;2022-11-20T06:08:40;10.70;99.90
7472;DHT22;3777;48.722;8.110;2022-11-20T06:11:09;10.70;99.90
7472;DHT22;3777;48.722;8.110;2022-11-20T06:13:37;10.60;99.90
7472;DHT22;3777;48.722;8.110;2022-11-20T06:16:05;10.50;99.90
7472;DHT22;3777;48.722;8.110;2022-11-20T06:18:32;10.30;99.90
7472;DHT22;3777;48.722;8.110;2022-11-20T06:21:00;10.30;99.90
7472;DHT22;3777;48.722;8.110;2022-11-20T06:23:29;10.40;99.90
7472;DHT22;3777;48.722;8.110;2022-11-20T06:25:57;10.50;99.90
7472;DHT22;3777;48.722;8.110;2022-11-20T06:28:24;10.60;99.90
7472;DHT22;3777;48.722;8.110;2022-11-20T06:30:51;10.70;99.90
7472;DHT22;3777;48.722;8.110;2022-11-20T06:33:18;10.70;99.90
7472;DHT22;3777;48.722;8.110;2022-11-20T06:35:45;10.80;99.90
7472;DHT22;3777;48.722;8.110;2022-11-20T06:38:12;10.80;99.90
7472;DHT22;3777;48.722;8.110;2022-11-20T06:40:41;10.90;99.90
7472;DHT22;3777;48.722;8.110;2022-11-20T06:43:09;10.90;99.90
7472;DHT22;3777;48.722;8.110;2022-11-20T06:45:36;10.90;99.90
7472;DHT22;3777;48.722;8.110;2022-11-20T06:48:04;10.90;99.90
7472;DHT22;3777;48.722;8.110;2022-11-20T06:50:31;10.80;99.90
7472;DHT22;3777;48.722;8.110;2022-11-20T06:53:00;10.70;99.90
7472;DHT22;3777;48.722;8.110;2022-11-20T06:55:28;10.60;99.90
7472;DHT22;3777;48.722;8.110;2022-11-20T06:57:56;10.50;99.90
7472;DHT22;3777;48.722;8.110;2022-11-20T07:00:23;10.40;99.90
7472;DHT22;3777;48.722;8.110;2022-11-20T07:02:50;10.40;99.90
7472;DHT22;3777;48.722;8.110;2022-11-20T07:05:17;10.20;99.90
7472;DHT22;3777;48.722;8.110;2022-11-20T07:07:44;10.30;99.90
7472;DHT22;3777;48.722;8.110;2022-11-20T07:12:38;10.40;99.90
7472;DHT22;3777;48.722;8.110;2022-11-20T07:15:08;10.30;99.90
7472;DHT22;3777;48.722;8.110;2022-11-20T07:17:35;10.40;99.90
7472;DHT22;3777;48.722;8.110;2022-11-20T07:20:02;10.40;99.90
7472;DHT22;3777;48.722;8.110;2022-11-20T07:22:29;10.40;99.90
7472;DHT22;3777;48.722;8.110;2022-11-20T07:24:55;10.50;99.90
7472;DHT22;3777;48.722;8.110;2022-11-20T07:27:22;10.50;99.90
7472;DHT22;3777;48.722;8.110;2022-11-20T07:29:49;10.60;99.90
7472;DHT22;3777;48.722;8.110;2022-11-20T07:32:18;10.50;99.90
7472;DHT22;3777;48.722;8.110;2022-11-20T07:34:45;10.50;99.90
7472;DHT22;3777;48.722;8.110;2022-11-20T07:37:12;10.30;99.90
7472;DHT22;3777;48.722;8.110;2022-11-20T07:39:38;10.30;99.90
7472;DHT22;3777;48.722;8.110;2022-11-20T07:42:06;10.20;99.90
7472;DHT22;3777;48.722;8.110;2022-11-20T07:44:33;10.30;99.90
7472;DHT22;3777;48.722;8.110;2022-11-20T07:47:00;10.40;99.90
7472;DHT22;3777;48.722;8.110;2022-11-20T07:49:28;10.50;99.90
7472;DHT22;3777;48.722;8.110;2022-11-20T07:51:56;10.60;99.90
7472;DHT22;3777;48.722;8.110;2022-11-20T07:54:23;10.60;99.90
7472;DHT22;3777;48.722;8.110;2022-11-20T07:56:50;10.70;99.90
7472;DHT22;3777;48.722;8.110;2022-11-20T07:59:17;10.60;99.90
7472;DHT22;3777;48.722;8.110;2022-11-20T08:01:44;10.60;99.90
7472;DHT22;3777;48.722;8.110;2022-11-20T08:04:11;10.50;99.90
7472;DHT22;3777;48.722;8.110;2022-11-20T08:06:39;10.60;99.90
7472;DHT22;3777;48.722;8.110;2022-11-20T08:09:06;10.70;99.90
7472;DHT22;3777;48.722;8.110;2022-11-20T08:11:33;10.70;99.90
7472;DHT22;3777;48.722;8.110;2022-11-20T08:14:17;10.80;99.90
7472;DHT22;3777;48.722;8.110;2022-11-20T08:16:46;10.80;99.90
7472;DHT22;3777;48.722;8.110;2022-11-20T08:19:14;10.90;99.90
7472;DHT22;3777;48.722;8.110;2022-11-20T08:21:43;10.90;99.90
7472;DHT22;3777;48.722;8.110;2022-11-20T08:24:10;10.90;99.90
7472;DHT22;3777;48.722;8.110;2022-11-20T08:26:38;10.90;99.90
7472;DHT22;3777;48.722;8.110;2022-11-20T08:29:06;11.00;99.90
7472;DHT22;3777;48.722;8.110;2022-11-20T08:31:33;10.90;99.90
7472;DHT22;3777;48.722;8.110;2022-11-20T08:34:00;10.80;99.90
7472;DHT22;3777;48.722;8.110;2022-11-20T08:36:27;10.80;99.90
7472;DHT22;3777;48.722;8.110;2022-11-20T08:38:56;10.80;99.90
7472;DHT22;3777;48.722;8.110;2022-11-20T08:41:22;10.90;99.90
7472;DHT22;3777;48.722;8.110;2022-11-20T08:43:55;10.90;99.90
7472;DHT22;3777;48.722;8.110;2022-11-20T08:46:23;10.90;99.90
7472;DHT22;3777;48.722;8.110;2022-11-20T08:48:51;10.90;99.90
7472;DHT22;3777;48.722;8.110;2022-11-20T08:51:19;10.90;99.90
7472;DHT22;3777;48.722;8.110;2022-11-20T08:53:46;10.90;99.90
7472;DHT22;3777;48.722;8.110;2022-11-20T08:56:16;11.00;99.90
7472;DHT22;3777;48.722;8.110;2022-11-20T08:58:44;11.00;99.90
7472;DHT22;3777;48.722;8.110;2022-11-20T09:01:11;10.90;99.90
7472;DHT22;3777;48.722;8.110;2022-11-20T09:03:38;10.80;99.90
7472;DHT22;3777;48.722;8.110;2022-11-20T09:06:06;10.80;99.90
7472;DHT22;3777;48.722;8.110;2022-11-20T09:08:34;10.90;99.90
7472;DHT22;3777;48.722;8.110;2022-11-20T09:11:02;11.00;99.90
7472;DHT22;3777;48.722;8.110;2022-11-20T09:13:32;11.00;99.90
7472;DHT22;3777;48.722;8.110;2022-11-20T09:16:01;10.90;99.90
7472;DHT22;3777;48.722;8.110;2022-11-20T09:18:29;11.00;99.90
7472;DHT22;3777;48.722;8.110;2022-11-20T09:20:58;11.00;99.90
7472;DHT22;3777;48.722;8.110;2022-11-20T09:23:25;11.10;99.90
7472;DHT22;3777;48.722;8.110;2022-11-20T09:25:53;11.10;99.90
7472;DHT22;3777;48.722;8.110;2022-11-20T09:28:21;11.00;99.90
7472;DHT22;3777;48.722;8.110;2022-11-20T09:30:49;11.10;99.90
7472;DHT22;3777;48.722;8.110;2022-11-20T09:33:17;11.10;99.90
7472;DHT22;3777;48.722;8.110;2022-11-20T09:35:44;11.20;99.90
7472;DHT22;3777;48.722;8.110;2022-11-20T09:38:11;11.10;99.90
7472;DHT22;3777;48.722;8.110;2022-11-20T09:40:45;11.30;99.90
7472;DHT22;3777;48.722;8.110;2022-11-20T09:43:16;11.40;99.90
7472;DHT22;3777;48.722;8.110;2022-11-20T09:45:56;11.50;99.90
7472;DHT22;3777;48.722;8.110;2022-11-20T09:51:27;11.10;99.90
7472;DHT22;3777;48.722;8.110;2022-11-20T09:54:04;11.20;99.90
7472;DHT22;3777;48.722;8.110;2022-11-20T09:56:34;11.20;99.90
7472;DHT22;3777;48.722;8.110;2022-11-20T09:59:06;11.20;99.90
7472;DHT22;3777;48.722;8.110;2022-11-20T10:01:36;11.40;99.90
7472;DHT22;3777;48.722;8.110;2022-11-20T10:04:11;11.50;99.90
7472;DHT22;3777;48.722;8.110;2022-11-20T10:06:44;11.70;99.90
7472;DHT22;3777;48.722;8.110;2022-11-20T10:09:20;11.90;99.90
7472;DHT22;3777;48.722;8.110;2022-11-20T10:11:52;11.90;99.90
7472;DHT22;3777;48.722;8.110;2022-11-20T10:14:28;12.00;99.90
7472;DHT22;3777;48.722;8.110;2022-11-20T10:17:03;12.20;99.90
7472;DHT22;3777;48.722;8.110;2022-11-20T10:19:47;12.20;99.90
7472;DHT22;3777;48.722;8.110;2022-11-20T10:22:22;12.30;99.90
7472;DHT22;3777;48.722;8.110;2022-11-20T10:24:56;12.50;99.90
7472;DHT22;3777;48.722;8.110;2022-11-20T10:30:26;12.80;99.90
7472;DHT22;3777;48.722;8.110;2022-11-20T10:33:01;12.70;99.90
7472;DHT22;3777;48.722;8.110;2022-11-20T10:35:35;12.70;99.90
7472;DHT22;3777;48.722;8.110;2022-11-20T10:38:05;12.80;99.90
7472;DHT22;3777;48.722;8.110;2022-11-20T10:40:38;12.80;99.90
7472;DHT22;3777;48.722;8.110;2022-11-20T10:43:10;12.50;99.90
7472;DHT22;3777;48.722;8.110;2022-11-20T10:45:49;12.50;99.90
7472;DHT22;3777;48.722;8.110;2022-11-20T10:48:23;13.20;99.90
7472;DHT22;3777;48.722;8.110;2022-11-20T10:51:15;13.30;99.90
7472;DHT22;3777;48.722;8.110;2022-11-20T10:53:52;13.20;99.90
7472;DHT22;3777;48.722;8.110;2022-11-20T10:56:25;13.40;99.90
7472;DHT22;3777;48.722;8.110;2022-11-20T10:59:04;13.00;99.90
7472;DHT22;3777;48.722;8.110;2022-11-20T11:01:39;12.50;99.90
7472;DHT22;3777;48.722;8.110;2022-11-20T11:04:28;12.50;99.90
7472;DHT22;3777;48.722;8.110;2022-11-20T11:07:05;12.40;99.90
7472;DHT22;3777;48.722;8.110;2022-11-20T11:09:35;12.50;99.90
7472;DHT22;3777;48.722;8.110;2022-11-20T11:12:07;12.50;99.90
7472;DHT22;3777;48.722;8.110;2022-11-20T11:14:46;12.60;99.90
7472;DHT22;3777;48.722;8.110;2022-11-20T11:17:25;12.50;99.90
7472;DHT22;3777;48.722;8.110;2022-11-20T11:20:03;12.40;99.90
7472;DHT22;3777;48.722;8.110;2022-11-20T11:22:32;12.20;99.90
7472;DHT22;3777;48.722;8.110;2022-11-20T11:25:00;12.20;99.90
7472;DHT22;3777;48.722;8.110;2022-11-20T11:27:27;12.20;99.90
7472;DHT22;3777;48.722;8.110;2022-11-20T11:30:10;12.30;99.90
7472;DHT22;3777;48.722;8.110;2022-11-20T11:32:37;12.30;99.90
7472;DHT22;3777;48.722;8.110;2022-11-20T11:35:18;12.50;99.90
7472;DHT22;3777;48.722;8.110;2022-11-20T11:37:46;12.50;99.90
7472;DHT22;3777;48.722;8.110;2022-11-20T11:40:15;12.70;99.90
7472;DHT22;3777;48.722;8.110;2022-11-20T11:42:43;12.50;99.90
7472;DHT22;3777;48.722;8.110;2022-11-20T11:45:14;12.60;99.90
7472;DHT22;3777;48.722;8.110;2022-11-20T11:47:45;12.80;99.90
7472;DHT22;3777;48.722;8.110;2022-11-20T11:50:20;12.90;99.90
7472;DHT22;3777;48.722;8.110;2022-11-20T11:52:55;13.00;99.90
7472;DHT22;3777;48.722;8.110;2022-11-20T11:55:29;13.20;99.90
7472;DHT22;3777;48.722;8.110;2022-11-20T11:58:09;13.30;99.90
7472;DHT22;3777;48.722;8.110;2022-11-20T12:00:41;13.50;99.90
7472;DHT22;3777;48.722;8.110;2022-11-20T12:03:15;13.70;99.90
7472;DHT22;3777;48.722;8.110;2022-11-20T12:05:51;13.80;99.90
7472;DHT22;3777;48.722;8.110;2022-11-20T12:08:23;13.80;99.90
7472;DHT22;3777;48.722;8.110;2022-11-20T12:10:56;13.90;99.90
7472;DHT22;3777;48.722;8.110;2022-11-20T12:13:40;13.90;99.90
7472;DHT22;3777;48.722;8.110;2022-11-20T12:16:12;13.90;99.90
7472;DHT22;3777;48.722;8.110;2022-11-20T12:18:40;13.90;99.90
7472;DHT22;3777;48.722;8.110;2022-11-20T12:21:18;13.90;99.90
7472;DHT22;3777;48.722;8.110;2022-11-20T12:23:58;13.90;99.90
7472;DHT22;3777;48.722;8.110;2022-11-20T12:26:44;13.80;99.90
7472;DHT22;3777;48.722;8.110;2022-11-20T12:29:20;13.70;99.90
7472;DHT22;3777;48.722;8.110;2022-11-20T12:31:59;13.50;99.90
7472;DHT22;3777;48.722;8.110;2022-11-20T12:34:43;13.50;99.90
7472;DHT22;3777;48.722;8.110;2022-11-20T12:37:24;13.30;99.90
7472;DHT22;3777;48.722;8.110;2022-11-20T12:39:56;13.20;99.90
7472;DHT22;3777;48.722;8.110;2022-11-20T12:42:38;13.10;99.90
7472;DHT22;3777;48.722;8.110;2022-11-20T12:48:42;13.20;99.90
7472;DHT22;3777;48.722;8.110;2022-11-20T12:51:30;13.10;99.90
7472;DHT22;3777;48.722;8.110;2022-11-20T12:57:00;13.00;99.90
7472;DHT22;3777;48.722;8.110;2022-11-20T12:59:46;13.00;99.90
7472;DHT22;3777;48.722;8.110;2022-11-20T13:02:23;12.80;99.90
7472;DHT22;3777;48.722;8.110;2022-11-20T13:05:04;12.80;99.90
7472;DHT22;3777;48.722;8.110;2022-11-20T13:07:33;12.70;99.90
7472;DHT22;3777;48.722;8.110;2022-11-20T13:10:04;12.60;99.90
7472;DHT22;3777;48.722;8.110;2022-11-20T13:12:36;12.60;99.90
7472;DHT22;3777;48.722;8.110;2022-11-20T13:15:08;12.60;99.90
7472;DHT22;3777;48.722;8.110;2022-11-20T13:17:45;12.60;99.90
7472;DHT22;3777;48.722;8.110;2022-11-20T13:20:16;12.70;99.90
7472;DHT22;3777;48.722;8.110;2022-11-20T13:22:45;12.70;99.90
7472;DHT22;3777;48.722;8.110;2022-11-20T13:25:24;12.60;99.90
7472;DHT22;3777;48.722;8.110;2022-11-20T13:27:51;12.60;99.90
7472;DHT22;3777;48.722;8.110;2022-11-20T13:30:20;12.70;99.90
7472;DHT22;3777;48.722;8.110;2022-11-20T13:32:49;12.70;99.90
7472;DHT22;3777;48.722;8.110;2022-11-20T13:35:25;12.60;99.90
7472;DHT22;3777;48.722;8.110;2022-11-20T13:38:04;12.70;99.90
7472;DHT22;3777;48.722;8.110;2022-11-20T13:40:33;12.60;99.90
7472;DHT22;3777;48.722;8.110;2022-11-20T13:43:10;12.60;99.90
7472;DHT22;3777;48.722;8.110;2022-11-20T13:45:41;12.60;99.90
7472;DHT22;3777;48.722;8.110;2022-11-20T13:48:20;12.60;99.90
7472;DHT22;3777;48.722;8.110;2022-11-20T13:50:56;12.50;99.90
7472;DHT22;3777;48.722;8.110;2022-11-20T13:53:48;12.50;99.90
7472;DHT22;3777;48.722;8.110;2022-11-20T13:56:24;12.40;99.90
7472;DHT22;3777;48.722;8.110;2022-11-20T13:59:01;12.40;99.90
7472;DHT22;3777;48.722;8.110;2022-11-20T14:01:30;12.40;99.90
7472;DHT22;3777;48.722;8.110;2022-11-20T14:03:58;12.40;99.90
7472;DHT22;3777;48.722;8.110;2022-11-20T14:06:27;12.30;99.90
7472;DHT22;3777;48.722;8.110;2022-11-20T14:08:55;12.30;99.90
7472;DHT22;3777;48.722;8.110;2022-11-20T14:11:25;12.30;99.90
7472;DHT22;3777;48.722;8.110;2022-11-20T14:13:55;12.30;99.90
7472;DHT22;3777;48.722;8.110;2022-11-20T14:16:23;12.30;99.90
7472;DHT22;3777;48.722;8.110;2022-11-20T14:18:50;12.20;99.90
7472;DHT22;3777;48.722;8.110;2022-11-20T14:21:25;12.20;99.90
7472;DHT22;3777;48.722;8.110;2022-11-20T14:23:53;12.20;99.90
7472;DHT22;3777;48.722;8.110;2022-11-20T14:26:20;12.10;99.90
7472;DHT22;3777;48.722;8.110;2022-11-20T14:28:50;12.10;99.90
7472;DHT22;3777;48.722;8.110;2022-11-20T14:31:23;12.00;99.90
7472;DHT22;3777;48.722;8.110;2022-11-20T14:33:51;12.00;99.90
7472;DHT22;3777;48.722;8.110;2022-11-20T14:36:21;12.00;99.90
7472;DHT22;3777;48.722;8.110;2022-11-20T14:38:49;12.00;99.90
7472;DHT22;3777;48.722;8.110;2022-11-20T14:41:18;12.00;99.90
7472;DHT22;3777;48.722;8.110;2022-11-20T14:43:47;12.00;99.90
7472;DHT22;3777;48.722;8.110;2022-11-20T14:46:16;12.00;99.90
7472;DHT22;3777;48.722;8.110;2022-11-20T14:48:45;12.00;99.90
7472;DHT22;3777;48.722;8.110;2022-11-20T14:51:25;12.00;99.90
7472;DHT22;3777;48.722;8.110;2022-11-20T14:53:53;11.90;99.90
7472;DHT22;3777;48.722;8.110;2022-11-20T14:56:23;11.90;99.90
7472;DHT22;3777;48.722;8.110;2022-11-20T14:58:57;11.90;99.90
7472;DHT22;3777;48.722;8.110;2022-11-20T15:01:30;11.90;99.90
7472;DHT22;3777;48.722;8.110;2022-11-20T15:04:00;11.90;99.90
7472;DHT22;3777;48.722;8.110;2022-11-20T15:06:28;11.90;99.90
7472;DHT22;3777;48.722;8.110;2022-11-20T15:08:57;12.00;99.90
7472;DHT22;3777;48.722;8.110;2022-11-20T15:11:28;12.00;99.90
7472;DHT22;3777;48.722;8.110;2022-11-20T15:13:57;12.00;99.90
7472;DHT22;3777;48.722;8.110;2022-11-20T15:16:25;12.00;99.90
7472;DHT22;3777;48.722;8.110;2022-11-20T15:18:54;12.10;99.90
7472;DHT22;3777;48.722;8.110;2022-11-20T15:21:22;12.10;99.90
7472;DHT22;3777;48.722;8.110;2022-11-20T15:23:49;12.10;99.90
7472;DHT22;3777;48.722;8.110;2022-11-20T15:26:21;12.00;99.90
7472;DHT22;3777;48.722;8.110;2022-11-20T15:28:50;12.00;99.90
7472;DHT22;3777;48.722;8.110;2022-11-20T15:31:19;12.00;99.90
7472;DHT22;3777;48.722;8.110;2022-11-20T15:33:46;12.00;99.90
7472;DHT22;3777;48.722;8.110;2022-11-20T15:36:15;12.00;99.90
7472;DHT22;3777;48.722;8.110;2022-11-20T15:38:42;12.00;99.90
7472;DHT22;3777;48.722;8.110;2022-11-20T15:41:09;11.90;99.90
7472;DHT22;3777;48.722;8.110;2022-11-20T15:43:39;11.90;99.90
7472;DHT22;3777;48.722;8.110;2022-11-20T15:46:09;12.00;99.90
7472;DHT22;3777;48.722;8.110;2022-11-20T15:48:39;11.90;99.90
7472;DHT22;3777;48.722;8.110;2022-11-20T15:51:17;11.90;99.90
7472;DHT22;3777;48.722;8.110;2022-11-20T15:53:48;11.90;99.90
7472;DHT22;3777;48.722;8.110;2022-11-20T15:56:15;11.90;99.90
7472;DHT22;3777;48.722;8.110;2022-11-20T15:58:41;11.80;99.90
7472;DHT22;3777;48.722;8.110;2022-11-20T16:01:11;11.70;99.90
7472;DHT22;3777;48.722;8.110;2022-11-20T16:03:38;11.70;99.90
7472;DHT22;3777;48.722;8.110;2022-11-20T16:06:05;11.70;99.90
7472;DHT22;3777;48.722;8.110;2022-11-20T16:08:33;11.70;99.90
7472;DHT22;3777;48.722;8.110;2022-11-20T16:11:00;11.80;99.90
7472;DHT22;3777;48.722;8.110;2022-11-20T16:13:28;11.80;99.90
7472;DHT22;3777;48.722;8.110;2022-11-20T16:16:19;11.80;99.90
7472;DHT22;3777;48.722;8.110;2022-11-20T16:18:47;11.80;99.90
7472;DHT22;3777;48.722;8.110;2022-11-20T16:21:13;11.80;99.90
7472;DHT22;3777;48.722;8.110;2022-11-20T16:23:42;11.70;99.90
7472;DHT22;3777;48.722;8.110;2022-11-20T16:26:10;11.80;99.90
7472;DHT22;3777;48.722;8.110;2022-11-20T16:28:37;11.80;99.90
7472;DHT22;3777;48.722;8.110;2022-11-20T16:31:11;11.70;99.90
7472;DHT22;3777;48.722;8.110;2022-11-20T16:33:38;11.70;99.90
7472;DHT22;3777;48.722;8.110;2022-11-20T16:36:09;11.70;99.90